Sierraville, California
Current Conditions -  °F | °C
As of 6:35 PM on Wednesday 22 Oct 2014 (Local Time) from KTRK Reporting Station
Clear Clear  
Wind Chill: 12°   Ceiling: Unl
Heat Index: 12°   Visibility: 10mi
Dew Point: -1°   Wind: 10mph
Humidity: 41%   Direction: 210°SSW
Pressure: 30.14"   Gusts: NA
Location:  39.59°N, 120.37°W
Report Text: KTRK 230135Z AUTO 21009KT 10SM CLR 12/M01 A3014 RMK AO2
Loading
Personal Weather Stations






























Interactive Weather Map
Tropical Storm Tracking
New forecast layout! Learn more

10-Day Weather Forecast

Advertisements
Track Severe Weather on mobile